Time;durP1;ratioP1;P1;durP2;ratioP2;P2;SDS_P1;SDS_P2;PMS_P1;PMS_P2;Temp;Humidity;BMP_temperature;BMP_pressure;BME280_temperature;BME280_humidity;BME280_pressure;Samples;Min_cycle;Max_cycle;Signal;HPM_P1;HPM_P2
2023/10/17 00:01:00;;;;;;;1.05;1.05;;;;;;;-0.09;89.43;98775.25;4983381;28;20474;-78
2023/10/17 00:03:26;;;;;;;1.00;1.00;;;;;;;-0.02;89.30;98772.22;4973607;28;20084;-79
2023/10/17 00:05:55;;;;;;;1.00;1.00;;;;;;;-0.43;89.72;98761.41;4975342;28;20039;-79
2023/10/17 00:08:21;;;;;;;1.10;1.10;;;;;;;-0.22;90.03;98767.28;4977512;28;20045;-80
2023/10/17 00:10:47;;;;;;;1.10;1.10;;;;;;;-0.30;89.45;98767.63;4993094;28;20042;-79
2023/10/17 00:13:38;;;;;;;1.10;1.10;;;;;;;-0.27;89.91;98748.63;4976072;28;20061;-79
2023/10/17 00:16:12;;;;;;;1.10;1.10;;;;;;;-0.21;89.67;98742.88;4980282;28;20511;-80
2023/10/17 00:18:40;;;;;;;1.10;1.10;;;;;;;-0.30;90.20;98744.03;4972214;28;20042;-79
2023/10/17 00:21:22;;;;;;;1.00;1.00;;;;;;;-0.55;89.73;98733.53;4974334;28;20042;-79
2023/10/17 00:23:50;;;;;;;1.10;1.10;;;;;;;-0.50;89.89;98730.34;4970153;28;20097;-80
2023/10/17 00:26:20;;;;;;;1.10;1.10;;;;;;;-0.75;90.15;98725.03;4972536;28;20085;-80
2023/10/17 00:28:51;;;;;;;1.10;1.10;;;;;;;-0.84;90.15;98723.56;4970808;28;20050;-80
2023/10/17 00:31:21;;;;;;;1.10;1.10;;;;;;;-0.97;90.28;98720.84;4975089;28;20073;-79
2023/10/17 00:34:12;;;;;;;1.10;1.10;;;;;;;-0.62;90.54;98712.03;4967734;28;20049;-81
2023/10/17 00:36:47;;;;;;;1.10;1.10;;;;;;;-0.74;90.33;98696.31;4970342;28;20067;-81
2023/10/17 00:39:17;;;;;;;1.10;1.10;;;;;;;-0.62;90.42;98696.31;4969340;28;20074;-80
2023/10/17 00:44:30;;;;;;;1.08;1.08;;;;;;;-0.37;90.27;98689.38;4975830;28;20085;-81
2023/10/17 00:46:57;;;;;;;1.10;1.10;;;;;;;-0.47;89.85;98683.38;4978664;28;20062;-81
2023/10/17 00:49:25;;;;;;;1.10;1.10;;;;;;;-0.78;90.00;98679.47;4983493;28;20054;-81
2023/10/17 00:51:55;;;;;;;1.10;1.10;;;;;;;-0.77;90.51;98685.63;4974553;28;20068;-81
2023/10/17 00:54:25;;;;;;;1.00;1.00;;;;;;;-0.91;89.90;98682.03;4970424;28;20065;-79
2023/10/17 00:56:56;;;;;;;1.10;1.10;;;;;;;-0.88;90.86;98678.69;4978273;28;20043;-79
2023/10/17 00:59:29;;;;;;;1.10;1.10;;;;;;;-1.01;90.83;98676.88;4968178;28;20054;-79
2023/10/17 01:01:56;;;;;;;1.10;1.10;;;;;;;-1.01;90.45;98678.59;4970048;28;20184;-79
2023/10/17 01:04:24;;;;;;;1.10;1.10;;;;;;;-0.99;90.23;98677.03;4992972;23;20575;-79
2023/10/17 01:07:05;;;;;;;1.10;1.10;;;;;;;-0.97;90.99;98675.41;4994598;28;20115;-78
2023/10/17 01:09:34;;;;;;;1.10;1.10;;;;;;;-0.94;90.78;98676.56;4981181;28;20046;-79
2023/10/17 01:12:12;;;;;;;1.10;1.10;;;;;;;-1.02;90.43;98675.06;4984682;28;20026;-80
2023/10/17 01:14:37;;;;;;;1.10;1.10;;;;;;;-1.16;90.34;98681.00;4984969;28;20045;-78
2023/10/17 01:17:14;;;;;;;1.10;1.10;;;;;;;-0.84;90.55;98684.28;4974881;28;20038;-79
2023/10/17 01:19:39;;;;;;;1.10;1.10;;;;;;;-0.98;90.17;98670.97;4968673;28;20263;-78
2023/10/17 01:22:05;;;;;;;1.10;1.10;;;;;;;-1.01;90.53;98670.75;5000191;28;20657;-79
2023/10/17 01:24:32;;;;;;;1.10;1.10;;;;;;;-1.31;90.64;98670.31;4985774;28;20038;-78
2023/10/17 01:26:57;;;;;;;1.10;1.10;;;;;;;-1.18;91.12;98672.16;4985788;28;20100;-78
2023/10/17 01:29:23;;;;;;;1.10;1.10;;;;;;;-1.17;91.07;98673.97;4991981;28;20062;-79
2023/10/17 01:31:50;;;;;;;1.10;1.10;;;;;;;-1.36;90.49;98677.84;4986231;28;20049;-78
2023/10/17 01:34:16;;;;;;;1.10;1.10;;;;;;;-1.36;91.11;98683.06;4985864;28;20057;-79
2023/10/17 01:36:43;;;;;;;1.10;1.10;;;;;;;-1.32;90.96;98676.38;4983741;28;20132;-79
2023/10/17 01:39:09;;;;;;;1.10;1.10;;;;;;;-1.13;91.04;98671.69;4984890;28;20504;-79
2023/10/17 01:41:35;;;;;;;1.10;1.10;;;;;;;-1.11;90.83;98671.78;4980749;28;20027;-79
2023/10/17 01:44:01;;;;;;;1.10;1.10;;;;;;;-1.19;91.03;98673.88;4980758;28;20053;-78
2023/10/17 01:46:31;;;;;;;1.10;1.10;;;;;;;-1.15;91.00;98675.91;4977382;28;20500;-79
2023/10/17 01:49:00;;;;;;;1.10;1.10;;;;;;;-1.29;91.09;98681.84;4976711;28;20157;-77
2023/10/17 01:51:27;;;;;;;1.10;1.10;;;;;;;-1.18;90.82;98677.38;4947057;28;20031;-77
2023/10/17 01:53:53;;;;;;;1.10;1.10;;;;;;;-1.26;90.49;98675.91;4964622;28;20050;-77
2023/10/17 01:56:26;;;;;;;1.10;1.10;;;;;;;-1.33;90.85;98674.56;4969674;28;20057;-79
2023/10/17 01:58:55;;;;;;;1.10;1.10;;;;;;;-1.44;91.03;98678.06;4964981;28;20038;-78
2023/10/17 02:01:26;;;;;;;1.10;1.10;;;;;;;-1.61;91.03;98667.25;4958418;28;20042;-79
2023/10/17 02:04:03;;;;;;;1.10;1.10;;;;;;;-1.56;90.99;98670.22;4963819;28;20067;-78
2023/10/17 02:06:33;;;;;;;1.10;1.10;;;;;;;-1.56;91.47;98668.50;4979833;28;20442;-78
2023/10/17 02:09:00;;;;;;;1.10;1.10;;;;;;;-1.71;90.99;98658.59;4966413;28;20381;-79
2023/10/17 02:11:26;;;;;;;1.10;1.10;;;;;;;-1.52;91.14;98656.56;4970880;28;20031;-79
2023/10/17 02:13:56;;;;;;;1.10;1.10;;;;;;;-1.46;91.38;98662.25;4976872;28;20047;-79
2023/10/17 02:16:29;;;;;;;1.10;1.10;;;;;;;-1.72;90.95;98665.56;4981419;28;20097;-79
2023/10/17 02:18:58;;;;;;;1.10;1.10;;;;;;;-1.50;91.26;98669.75;4969168;28;20049;-80
2023/10/17 02:21:28;;;;;;;1.10;1.10;;;;;;;-1.62;91.37;98670.66;4963552;28;20133;-79
2023/10/17 02:23:54;;;;;;;1.10;1.10;;;;;;;-1.50;91.44;98667.13;4959094;28;20078;-78
2023/10/17 02:26:28;;;;;;;1.10;1.10;;;;;;;-1.50;90.80;98669.75;4964795;28;20046;-79
2023/10/17 02:29:05;;;;;;;1.10;1.10;;;;;;;-1.35;90.90;98668.28;4962851;28;20062;-78
2023/10/17 02:31:32;;;;;;;1.10;1.10;;;;;;;-1.38;90.58;98668.06;4965609;28;20062;-79
2023/10/17 02:33:58;;;;;;;1.10;1.10;;;;;;;-1.47;90.85;98665.66;4973601;28;20056;-79
2023/10/17 02:36:24;;;;;;;1.10;1.10;;;;;;;-1.31;90.67;98660.75;4969278;28;20039;-78
2023/10/17 02:38:51;;;;;;;1.10;1.10;;;;;;;-1.36;90.88;98656.91;4974337;28;20161;-80
2023/10/17 02:41:21;;;;;;;1.10;1.10;;;;;;;-1.47;90.41;98670.91;4967866;28;20047;-81
2023/10/17 02:43:55;;;;;;;1.10;1.10;;;;;;;-1.48;91.04;98666.47;4964070;28;20043;-83
2023/10/17 02:46:26;;;;;;;1.10;1.10;;;;;;;-1.23;90.72;98663.97;4984446;28;20042;-80
2023/10/17 02:48:53;;;;;;;1.10;1.10;;;;;;;-1.34;90.85;98668.41;4969736;28;20045;-79
2023/10/17 02:53:53;;;;;;;1.10;1.10;;;;;;;-1.34;90.76;98670.13;4983534;28;20113;-79
2023/10/17 02:56:19;;;;;;;1.10;1.10;;;;;;;-1.24;90.83;98663.84;4962091;28;20035;-80
2023/10/17 02:59:04;;;;;;;1.10;1.10;;;;;;;-1.30;90.89;98669.53;4984072;28;20039;-81
2023/10/17 03:01:38;;;;;;;1.10;1.10;;;;;;;-1.32;90.56;98673.75;4964955;28;20043;-80
2023/10/17 03:04:08;;;;;;;1.10;1.10;;;;;;;-1.23;90.74;98677.03;4965711;28;20054;-78
2023/10/17 03:06:38;;;;;;;1.10;1.10;;;;;;;-1.23;90.19;98679.66;4977290;28;20054;-78
2023/10/17 03:14:39;;;;;;;1.10;1.10;;;;;;;-1.26;90.03;98682.03;4966265;28;20038;-78
2023/10/17 03:17:05;;;;;;;1.10;1.10;;;;;;;-1.18;90.60;98672.16;4982310;28;20073;-79
2023/10/17 03:19:32;;;;;;;1.10;1.10;;;;;;;-1.04;90.33;98668.84;4970261;28;20042;-82
2023/10/17 03:22:16;;;;;;;1.10;1.10;;;;;;;-0.99;90.39;98658.69;4972197;28;20059;-80
2023/10/17 03:24:44;;;;;;;1.10;1.10;;;;;;;-0.95;89.63;98661.66;4964582;28;20039;-80
2023/10/17 03:30:05;;;;;;;1.10;1.10;;;;;;;-1.04;89.97;98654.03;4982868;28;20488;-79
2023/10/17 03:32:32;;;;;;;1.10;1.10;;;;;;;-1.07;90.38;98658.13;4948647;28;20147;-79
2023/10/17 03:34:57;;;;;;;1.10;1.10;;;;;;;-1.17;90.60;98663.50;4966583;28;20049;-80
2023/10/17 03:39:54;;;;;;;1.10;1.10;;;;;;;-1.13;90.61;98652.44;4966209;28;20046;-79
2023/10/17 03:47:40;;;;;;;1.10;1.10;;;;;;;-0.87;90.76;98649.09;4967331;28;20096;-78
2023/10/17 03:50:08;;;;;;;1.10;1.10;;;;;;;-0.89;90.79;98651.59;4968115;28;20047;-80
2023/10/17 03:52:35;;;;;;;1.10;1.10;;;;;;;-0.77;90.60;98654.19;4982999;28;20125;-79
2023/10/17 03:55:01;;;;;;;1.10;1.10;;;;;;;-0.74;90.42;98661.38;4981606;28;20093;-79
2023/10/17 03:57:27;;;;;;;1.10;1.10;;;;;;;-0.72;90.72;98662.38;4968440;28;20047;-78
2023/10/17 03:59:56;;;;;;;1.10;1.10;;;;;;;-0.52;90.68;98673.50;4966538;28;20069;-78
2023/10/17 04:02:24;;;;;;;1.10;1.10;;;;;;;-0.47;90.46;98675.53;4978526;28;20176;-80
2023/10/17 04:04:53;;;;;;;1.10;1.10;;;;;;;-0.23;89.90;98671.09;4967701;28;20039;-79
2023/10/17 04:07:27;;;;;;;1.00;1.00;;;;;;;-0.34;89.67;98660.75;4982512;28;20039;-79
2023/10/17 04:10:19;;;;;;;1.10;1.10;;;;;;;-0.43;90.01;98662.75;4979871;28;20030;-79
2023/10/17 04:12:48;;;;;;;1.10;1.10;;;;;;;-0.15;89.54;98664.66;4967171;28;20453;-79
2023/10/17 04:15:15;;;;;;;1.00;1.00;;;;;;;-0.42;89.88;98668.91;4966183;28;20090;-81
2023/10/17 04:17:41;;;;;;;1.10;1.10;;;;;;;-0.41;89.82;98655.00;4972396;28;20042;-79
2023/10/17 04:20:12;;;;;;;1.00;1.00;;;;;;;-0.36;89.58;98654.50;4968060;28;20090;-79
2023/10/17 04:22:39;;;;;;;1.10;1.10;;;;;;;-0.33;89.64;98645.97;4967529;28;20130;-79
2023/10/17 04:27:59;;;;;;;1.10;1.10;;;;;;;-0.17;89.99;98629.56;4966616;28;20047;-78
2023/10/17 04:30:46;;;;;;;1.10;1.10;;;;;;;-0.12;89.65;98625.56;4967386;28;20046;-78
2023/10/17 04:33:19;;;;;;;1.10;1.10;;;;;;;-0.17;89.70;98622.63;4962018;28;20034;-79
2023/10/17 04:35:53;;;;;;;1.10;1.10;;;;;;;-0.05;89.56;98604.16;4971002;28;20043;-79
2023/10/17 04:38:19;;;;;;;1.10;1.10;;;;;;;0.04;89.56;98610.03;4967665;28;20053;-80
2023/10/17 04:43:44;;;;;;;1.10;1.10;;;;;;;0.01;89.84;98603.72;4966641;28;20038;-80
2023/10/17 04:46:10;;;;;;;1.00;1.00;;;;;;;0.16;89.99;98595.16;4967361;28;20653;-80
2023/10/17 04:48:36;;;;;;;1.05;1.05;;;;;;;0.27;89.47;98594.94;4965768;28;20035;-80
2023/10/17 04:53:49;;;;;;;1.02;1.02;;;;;;;0.36;89.42;98603.44;4966434;28;20116;-79
2023/10/17 04:56:19;;;;;;;1.08;1.08;;;;;;;0.33;89.34;98598.88;4967038;28;20038;-79
2023/10/17 05:01:46;;;;;;;1.00;1.00;;;;;;;0.47;89.25;98594.53;4965406;28;20045;-80
2023/10/17 06:17:52;;;;;;;0.93;0.93;;;;;;;1.31;89.17;98630.63;4984182;28;20043;-82
2023/10/17 06:20:19;;;;;;;0.90;0.90;;;;;;;1.37;88.64;98623.13;4968278;28;20107;-82
2023/10/17 06:28:20;;;;;;;0.90;0.90;;;;;;;1.55;88.55;98645.31;4968566;28;20047;-83
2023/10/17 06:30:48;;;;;;;0.90;0.90;;;;;;;1.64;88.98;98635.38;4952602;28;20444;-82
2023/10/17 06:33:17;;;;;;;1.00;1.00;;;;;;;1.83;87.98;98634.78;4982591;28;20453;-82
2023/10/17 06:35:55;;;;;;;0.98;0.98;;;;;;;1.82;87.90;98630.34;4966662;28;20043;-83
2023/10/17 06:38:43;;;;;;;0.98;0.98;;;;;;;1.91;87.93;98632.59;4967457;28;20038;-83
2023/10/17 06:41:16;;;;;;;1.00;1.00;;;;;;;1.95;88.66;98630.25;4967258;28;20762;-82
2023/10/17 06:43:46;;;;;;;0.90;0.90;;;;;;;2.08;87.70;98625.75;4966337;28;20070;-84
2023/10/17 06:46:28;;;;;;;0.90;0.90;;;;;;;2.25;87.13;98623.31;4982620;28;20073;-83
2023/10/17 06:48:56;;;;;;;0.90;0.90;;;;;;;2.35;86.84;98623.81;4969168;28;20047;-82
2023/10/17 06:51:29;;;;;;;0.90;0.90;;;;;;;2.51;86.88;98630.09;4967992;28;20043;-81
2023/10/17 06:53:57;;;;;;;0.90;0.90;;;;;;;2.62;87.10;98632.44;4984534;28;20150;-81
2023/10/17 06:56:25;;;;;;;0.90;0.90;;;;;;;2.75;87.06;98629.72;4968391;28;20130;-82
2023/10/17 06:59:03;;;;;;;0.80;0.80;;;;;;;2.83;85.67;98626.72;4980930;28;20043;-87
2023/10/17 07:01:28;;;;;;;0.90;0.90;;;;;;;3.03;85.72;98633.13;4964270;28;20085;-82
2023/10/17 07:03:55;;;;;;;0.80;0.80;;;;;;;3.09;86.55;98627.28;4966214;28;20035;-82
2023/10/17 07:06:25;;;;;;;0.90;0.90;;;;;;;3.26;85.34;98629.16;4968343;28;20441;-82
2023/10/17 07:08:51;;;;;;;0.93;0.93;;;;;;;3.20;84.33;98636.69;4969005;28;20043;-82
2023/10/17 07:13:49;;;;;;;0.90;0.90;;;;;;;3.27;84.36;98615.13;4969192;28;20117;-82
2023/10/17 07:16:25;;;;;;;0.90;0.90;;;;;;;3.28;84.39;98614.31;4964349;28;20054;-82
2023/10/17 07:18:54;;;;;;;0.90;0.90;;;;;;;3.32;83.71;98613.66;4966560;28;20456;-82
2023/10/17 07:21:26;;;;;;;0.90;0.90;;;;;;;3.42;84.17;98603.63;4986838;28;20721;-81
2023/10/17 07:23:56;;;;;;;0.80;0.80;;;;;;;3.70;84.89;98603.38;4960368;28;20050;-82
2023/10/17 07:26:38;;;;;;;0.80;0.80;;;;;;;3.81;83.31;98591.66;4972104;28;20146;-82
2023/10/17 07:29:05;;;;;;;0.80;0.80;;;;;;;4.42;82.79;98594.84;4973040;28;20502;-83
2023/10/17 07:31:32;;;;;;;0.90;0.90;;;;;;;4.50;83.34;98600.50;4973389;28;20027;-82
2023/10/17 07:36:36;;;;;;;0.80;0.80;;;;;;;4.71;82.45;98598.97;4971119;28;20046;-82
2023/10/17 07:39:06;;;;;;;0.80;0.80;;;;;;;4.81;81.86;98601.22;4968316;28;20050;-82
2023/10/17 07:41:37;;;;;;;0.80;0.80;;;;;;;5.17;81.40;98600.28;4991236;28;20051;-82
2023/10/17 07:49:43;;;;;;;0.80;0.80;;;;;;;5.92;79.77;98596.78;4966223;28;20131;-82
2023/10/17 07:52:12;;;;;;;0.70;0.70;;;;;;;6.02;78.03;98598.09;4968836;28;20039;-82
2023/10/17 07:54:55;;;;;;;0.80;0.80;;;;;;;6.17;78.33;98597.03;4940354;28;20043;-84
2023/10/17 07:57:28;;;;;;;0.70;0.70;;;;;;;6.22;74.59;98591.94;4987196;28;20042;-82
2023/10/17 07:59:59;;;;;;;0.70;0.70;;;;;;;6.43;75.27;98587.59;4987276;28;20381;-83
2023/10/17 08:02:30;;;;;;;0.70;0.70;;;;;;;6.23;71.54;98587.53;4972980;28;20043;-84
2023/10/17 08:05:00;;;;;;;0.70;0.70;;;;;;;6.68;76.09;98596.56;4955798;28;20807;-83
2023/10/17 08:07:29;;;;;;;0.70;0.70;;;;;;;6.66;73.10;98595.63;4971998;28;20142;-83
2023/10/17 08:09:58;;;;;;;0.70;0.70;;;;;;;6.53;71.50;98587.97;4974715;28;20030;-83
2023/10/17 08:12:24;;;;;;;0.70;0.70;;;;;;;6.82;72.69;98583.88;4967895;28;20108;-83
2023/10/17 08:15:18;;;;;;;0.80;0.80;;;;;;;7.06;68.76;98584.00;4990062;28;20045;-82
2023/10/17 08:17:44;;;;;;;0.73;0.73;;;;;;;7.39;68.87;98574.72;4974399;28;20097;-83
2023/10/17 08:23:06;;;;;;;0.70;0.70;;;;;;;7.71;67.05;98569.72;4974165;28;20047;-82
2023/10/17 08:25:32;;;;;;;0.70;0.70;;;;;;;7.65;67.17;98577.44;4988494;28;20043;-82
2023/10/17 08:27:58;;;;;;;0.77;0.77;;;;;;;7.46;66.89;98571.44;4975822;28;20038;-85
2023/10/17 08:30:28;;;;;;;0.68;0.68;;;;;;;7.68;66.86;98566.97;4975052;28;20469;-83
2023/10/17 08:35:38;;;;;;;0.70;0.70;;;;;;;7.63;66.10;98561.47;4975352;28;20066;-84
2023/10/17 08:38:10;;;;;;;0.70;0.70;;;;;;;7.59;66.66;98563.97;4973182;28;20062;-86
2023/10/17 08:43:14;;;;;;;0.70;0.70;;;;;;;7.51;66.49;98576.91;4986383;28;20022;-82
2023/10/17 08:45:41;;;;;;;0.70;0.70;;;;;;;8.14;65.11;98573.94;4971125;28;20049;-83
2023/10/17 08:48:11;;;;;;;0.70;0.70;;;;;;;9.17;63.23;98578.41;4975046;28;20053;-83
2023/10/17 08:50:38;;;;;;;0.70;0.70;;;;;;;9.20;62.12;98575.84;4971559;28;20428;-84
2023/10/17 08:53:19;;;;;;;0.63;0.63;;;;;;;9.28;61.29;98571.66;4972613;28;20437;-84
2023/10/17 08:55:48;;;;;;;0.60;0.60;;;;;;;9.58;61.05;98576.13;4971385;28;20794;-85
2023/10/17 08:58:15;;;;;;;0.60;0.60;;;;;;;9.92;60.03;98568.28;4970111;28;20100;-83
2023/10/17 09:03:23;;;;;;;0.60;0.60;;;;;;;9.15;60.75;98577.44;4969276;28;20046;-82
2023/10/17 09:06:07;;;;;;;0.67;0.67;;;;;;;9.67;60.76;98574.63;4970592;28;20039;-86
2023/10/17 09:08:55;;;;;;;;;;;;;;;;;;;;;
2023/10/17 09:11:33;;;;;;;0.60;0.60;;;;;;;10.11;59.46;98572.38;4966886;28;20055;-84
2023/10/17 09:16:49;;;;;;;0.60;0.60;;;;;;;10.99;57.29;98560.53;4967150;28;20560;-82
2023/10/17 09:19:14;;;;;;;0.60;0.60;;;;;;;9.98;59.32;98562.22;4963376;28;20844;-82
2023/10/17 09:21:47;;;;;;;0.55;0.55;;;;;;;9.20;61.79;98565.22;4969201;28;20038;-81
2023/10/17 09:24:35;;;;;;;0.60;0.60;;;;;;;9.59;61.04;98567.28;4967221;28;20070;-83
2023/10/17 09:27:14;;;;;;;0.60;0.60;;;;;;;9.93;59.24;98562.09;4982639;28;20050;-83
2023/10/17 09:29:46;;;;;;;0.60;0.60;;;;;;;9.17;62.37;98559.78;4966025;28;20049;-82
2023/10/17 09:32:11;;;;;;;0.60;0.60;;;;;;;10.22;61.18;98552.25;4961046;28;20069;-82
2023/10/17 09:34:40;;;;;;;0.60;0.60;;;;;;;10.84;58.21;98544.13;4967386;28;20528;-82
2023/10/17 09:37:12;;;;;;;0.60;0.60;;;;;;;10.79;58.45;98552.03;4966719;28;20039;-81
2023/10/17 09:39:43;;;;;;;0.50;0.50;;;;;;;10.52;57.89;98545.97;4967215;28;20042;-81
2023/10/17 09:42:09;;;;;;;0.60;0.60;;;;;;;10.18;59.38;98544.13;4966273;28;20090;-82
2023/10/17 09:44:35;;;;;;;0.60;0.60;;;;;;;10.43;59.80;98535.94;4965730;28;20066;-82
2023/10/17 09:47:02;;;;;;;0.60;0.60;;;;;;;10.34;58.20;98548.13;4963094;28;20495;-84
2023/10/17 09:49:43;;;;;;;0.60;0.60;;;;;;;11.30;56.89;98529.19;4966693;28;20065;-82
2023/10/17 09:52:10;;;;;;;0.50;0.50;;;;;;;10.77;57.72;98536.81;4980024;28;20481;-84
2023/10/17 09:54:40;;;;;;;0.60;0.60;;;;;;;11.36;56.72;98529.34;4966748;28;20045;-83
2023/10/17 09:57:13;;;;;;;0.50;0.50;;;;;;;11.79;55.91;98532.97;4984409;28;20043;-83
2023/10/17 09:59:44;;;;;;;0.50;0.50;;;;;;;10.38;58.46;98534.03;4974962;28;20049;-83
2023/10/17 10:02:13;;;;;;;0.50;0.50;;;;;;;10.78;58.86;98533.31;4966813;28;20085;-82
2023/10/17 10:04:39;;;;;;;0.60;0.60;;;;;;;10.69;59.15;98533.06;4980256;28;20074;-83
2023/10/17 10:07:21;;;;;;;0.50;0.50;;;;;;;10.13;60.38;98548.44;4970715;28;20075;-84
2023/10/17 10:09:47;;;;;;;0.60;0.60;;;;;;;10.59;58.73;98544.34;4964337;28;20448;-84
2023/10/17 10:12:14;;;;;;;0.52;0.52;;;;;;;11.42;57.51;98539.28;4965814;28;20500;-83
2023/10/17 10:14:43;;;;;;;0.60;0.60;;;;;;;11.37;57.55;98541.84;4966431;28;20126;-83
2023/10/17 10:17:15;;;;;;;0.50;0.50;;;;;;;10.95;58.41;98547.97;4964029;28;20512;-83
2023/10/17 10:19:41;;;;;;;0.57;0.57;;;;;;;11.57;57.07;98544.97;4966672;28;20066;-84
2023/10/17 10:22:08;;;;;;;0.50;0.50;;;;;;;11.19;57.20;98550.31;4964412;28;20110;-82
2023/10/17 10:24:36;;;;;;;0.50;0.50;;;;;;;10.87;58.54;98552.19;4966344;28;20061;-83
2023/10/17 10:27:14;;;;;;;0.50;0.50;;;;;;;11.12;57.59;98545.72;4964908;28;20039;-83
2023/10/17 10:29:40;;;;;;;0.50;0.50;;;;;;;12.31;55.21;98552.75;4958407;28;20135;-82
2023/10/17 10:32:26;;;;;;;0.50;0.50;;;;;;;12.75;53.65;98548.25;4967181;28;20059;-83
2023/10/17 10:34:55;;;;;;;0.50;0.50;;;;;;;13.13;52.59;98544.38;4963117;28;20151;-82
2023/10/17 10:37:21;;;;;;;0.50;0.50;;;;;;;12.73;53.94;98547.28;4967735;28;20042;-82
2023/10/17 10:40:40;;;;;;;0.50;0.50;;;;;;;13.27;52.36;98542.84;4965631;28;20046;-84
2023/10/17 10:43:01;;;;;;;0.50;0.50;;;;;;;13.01;52.91;98531.69;4963622;28;20055;-82
2023/10/17 10:45:35;;;;;;;0.50;0.50;;;;;;;12.50;54.91;98540.63;4965752;28;20035;-83
2023/10/17 10:48:04;;;;;;;0.43;0.43;;;;;;;13.28;52.35;98542.00;4968103;28;20866;-82
2023/10/17 10:50:34;;;;;;;0.50;0.50;;;;;;;13.09;52.59;98530.94;4966945;28;20050;-82
2023/10/17 10:53:17;;;;;;;0.40;0.40;;;;;;;12.97;52.86;98530.75;4984995;28;20074;-82
2023/10/17 10:55:50;;;;;;;0.40;0.40;;;;;;;12.86;53.11;98528.78;4966203;28;20042;-83
2023/10/17 10:58:15;;;;;;;0.40;0.40;;;;;;;12.14;55.71;98533.72;4985421;28;20046;-84
2023/10/17 11:00:41;;;;;;;0.40;0.40;;;;;;;12.66;55.17;98533.78;4970159;28;20054;-83
2023/10/17 11:03:07;;;;;;;0.40;0.40;;;;;;;12.63;53.47;98529.28;4953138;28;20117;-82
2023/10/17 11:05:33;;;;;;;0.50;0.50;;;;;;;11.85;55.75;98527.78;4967487;28;20444;-82
2023/10/17 11:08:02;;;;;;;0.50;0.50;;;;;;;12.11;55.25;98525.63;4967421;28;20318;-82
2023/10/17 11:10:29;;;;;;;0.50;0.50;;;;;;;11.75;57.12;98517.72;4970734;28;20062;-83
2023/10/17 11:12:55;;;;;;;0.50;0.50;;;;;;;12.02;56.56;98512.97;4968781;28;20137;-84
2023/10/17 11:15:27;;;;;;;0.50;0.50;;;;;;;11.29;57.92;98517.63;4984125;28;20058;-82
2023/10/17 11:18:00;;;;;;;0.50;0.50;;;;;;;12.12;55.91;98521.16;4969161;28;20041;-82
2023/10/17 11:20:26;;;;;;;0.50;0.50;;;;;;;11.90;55.60;98523.44;4969425;28;20145;-82
2023/10/17 11:22:52;;;;;;;0.50;0.50;;;;;;;11.41;58.47;98519.69;4983841;28;20049;-83
2023/10/17 11:25:27;;;;;;;0.50;0.50;;;;;;;11.21;57.48;98516.56;4956168;28;20051;-82
2023/10/17 11:27:56;;;;;;;0.50;0.50;;;;;;;11.64;56.57;98516.59;4966804;28;20078;-82
2023/10/17 11:30:34;;;;;;;0.60;0.60;;;;;;;11.73;57.12;98514.09;4968988;28;20047;-82
2023/10/17 11:33:04;;;;;;;0.60;0.60;;;;;;;11.84;56.26;98511.72;4968571;28;20073;-83
2023/10/17 11:35:34;;;;;;;0.57;0.57;;;;;;;12.38;55.74;98503.84;4986319;28;20103;-84
2023/10/17 11:38:01;;;;;;;0.60;0.60;;;;;;;12.18;55.12;98502.59;4969265;28;20113;-83
2023/10/17 11:40:55;;;;;;;0.63;0.63;;;;;;;12.66;54.19;98501.66;4968144;28;20046;-82
2023/10/17 11:43:28;;;;;;;0.50;0.50;;;;;;;12.64;53.65;98490.91;4970800;28;20500;-82
2023/10/17 11:45:54;;;;;;;0.50;0.50;;;;;;;12.77;53.77;98490.25;4968600;28;20899;-82
2023/10/17 11:48:31;;;;;;;0.50;0.50;;;;;;;12.24;55.29;98494.66;4971243;28;20043;-82
2023/10/17 11:51:13;;;;;;;;;;;;;;;12.82;54.25;98491.22;4971264;28;20497;-82
2023/10/17 11:54:03;;;;;;;0.52;0.52;;;;;;;12.97;53.40;98482.53;4973599;28;20311;-81
2023/10/17 11:56:33;;;;;;;0.52;0.52;;;;;;;12.25;55.72;98481.31;4967736;28;20047;-82
2023/10/17 11:59:01;;;;;;;0.50;0.50;;;;;;;12.83;53.94;98476.06;4972567;28;20046;-83
2023/10/17 12:01:28;;;;;;;0.50;0.50;;;;;;;13.18;52.96;98462.34;4969627;28;20466;-82
2023/10/17 12:03:56;;;;;;;0.60;0.60;;;;;;;12.61;54.84;98468.56;4968382;28;20095;-82
2023/10/17 12:06:26;;;;;;;0.50;0.50;;;;;;;12.86;53.52;98476.13;4969019;28;20067;-82
2023/10/17 12:08:55;;;;;;;0.50;0.50;;;;;;;12.33;54.75;98469.00;4960378;28;20049;-83
2023/10/17 12:11:24;;;;;;;0.60;0.60;;;;;;;12.07;56.47;98464.91;4967819;28;20448;-82
2023/10/17 12:13:51;;;;;;;0.50;0.50;;;;;;;13.19;53.99;98453.41;4967179;28;20038;-83
2023/10/17 12:16:17;;;;;;;;;;;;;;;12.29;55.16;98467.13;4952600;28;20043;-83
2023/10/17 12:18:45;;;;;;;0.50;0.50;;;;;;;12.29;55.19;98463.56;4966829;28;20540;-83
2023/10/17 12:21:14;;;;;;;0.60;0.60;;;;;;;12.55;55.01;98440.84;4965578;28;20043;-83
2023/10/17 12:23:45;;;;;;;0.50;0.50;;;;;;;13.89;51.39;98432.88;4966784;28;20035;-82
2023/10/17 12:26:14;;;;;;;0.50;0.50;;;;;;;13.16;52.83;98446.22;4957659;28;20122;-83
2023/10/17 12:28:41;;;;;;;0.50;0.50;;;;;;;13.20;51.97;98441.81;4982072;28;20445;-83
2023/10/17 12:31:10;;;;;;;0.50;0.50;;;;;;;13.89;50.82;98434.66;4967667;28;20134;-82
2023/10/17 12:33:36;;;;;;;0.50;0.50;;;;;;;13.29;51.69;98437.50;4966404;28;20117;-81
2023/10/17 12:36:04;;;;;;;0.40;0.40;;;;;;;13.72;50.38;98435.38;4967807;28;20161;-82
2023/10/17 12:38:33;;;;;;;0.43;0.43;;;;;;;13.70;51.66;98426.44;4959643;28;20043;-81
2023/10/17 12:41:06;;;;;;;0.40;0.40;;;;;;;13.41;52.18;98422.47;4981209;28;20051;-82
2023/10/17 12:43:33;;;;;;;0.40;0.40;;;;;;;12.64;52.86;98423.09;4968105;28;20039;-80
2023/10/17 12:46:00;;;;;;;0.45;0.45;;;;;;;12.59;53.73;98421.25;4967093;28;20042;-81
2023/10/17 12:48:25;;;;;;;0.40;0.40;;;;;;;12.86;52.84;98413.66;4967042;28;20038;-82
2023/10/17 12:50:51;;;;;;;0.40;0.40;;;;;;;12.41;53.88;98418.31;4967576;28;20453;-81
2023/10/17 12:53:17;;;;;;;0.40;0.40;;;;;;;12.30;54.98;98423.44;4958394;28;20129;-81
2023/10/17 12:55:42;;;;;;;0.40;0.40;;;;;;;12.16;55.22;98421.41;4967658;28;20121;-82
2023/10/17 12:58:10;;;;;;;0.45;0.45;;;;;;;11.77;56.77;98425.09;4967321;28;20050;-82
2023/10/17 13:00:37;;;;;;;0.47;0.47;;;;;;;11.96;56.02;98426.41;4966982;28;20035;-82
2023/10/17 13:03:02;;;;;;;0.50;0.50;;;;;;;12.11;55.21;98429.34;4966855;28;20167;-82
2023/10/17 13:05:28;;;;;;;0.50;0.50;;;;;;;12.04;55.72;98420.31;4966313;28;20679;-83
2023/10/17 13:07:53;;;;;;;0.40;0.40;;;;;;;12.76;54.40;98417.97;4966768;28;20031;-82
2023/10/17 13:10:19;;;;;;;0.40;0.40;;;;;;;12.79;54.29;98421.59;4966935;28;20117;-82
2023/10/17 13:12:46;;;;;;;0.40;0.40;;;;;;;12.63;54.62;98426.66;4966681;28;20069;-81
2023/10/17 13:15:14;;;;;;;0.40;0.40;;;;;;;12.96;54.08;98411.13;4965042;28;20875;-81
2023/10/17 13:17:41;;;;;;;0.40;0.40;;;;;;;12.05;56.36;98411.41;4967765;28;20046;-81
2023/10/17 13:20:07;;;;;;;0.40;0.40;;;;;;;12.05;55.93;98407.84;4968159;28;20034;-81
2023/10/17 13:22:42;;;;;;;0.50;0.50;;;;;;;12.19;56.23;98405.44;4968925;28;20073;-81
2023/10/17 13:25:11;;;;;;;0.50;0.50;;;;;;;11.90;56.59;98410.25;4963399;28;20083;-81
2023/10/17 13:27:40;;;;;;;0.50;0.50;;;;;;;11.76;56.88;98407.28;4980747;28;20519;-81
2023/10/17 13:30:06;;;;;;;0.40;0.40;;;;;;;12.28;56.25;98400.25;4965631;28;20038;-82
2023/10/17 13:32:33;;;;;;;0.40;0.40;;;;;;;11.98;56.33;98404.19;4966133;28;20097;-81
2023/10/17 13:34:59;;;;;;;0.50;0.50;;;;;;;12.05;56.07;98402.50;4981472;28;20070;-81
2023/10/17 13:37:27;;;;;;;0.50;0.50;;;;;;;12.08;55.90;98389.19;4968978;28;20921;-81
2023/10/17 13:39:55;;;;;;;0.50;0.50;;;;;;;11.95;56.19;98401.44;4964550;28;20413;-81
2023/10/17 13:42:21;;;;;;;0.55;0.55;;;;;;;11.78;56.23;98393.06;4968510;28;20096;-81
2023/10/17 13:44:47;;;;;;;0.40;0.40;;;;;;;12.40;55.62;98394.16;4980825;28;21144;-81
2023/10/17 13:47:13;;;;;;;0.40;0.40;;;;;;;12.07;56.40;98403.41;4951786;28;20026;-82
2023/10/17 13:49:39;;;;;;;0.50;0.50;;;;;;;12.16;55.60;98394.66;4964934;28;20191;-80
2023/10/17 13:52:05;;;;;;;0.50;0.50;;;;;;;11.68;56.43;98403.53;4966651;28;20035;-81
2023/10/17 13:54:37;;;;;;;0.50;0.50;;;;;;;12.16;56.45;98400.91;4966078;28;20039;-81
2023/10/17 13:57:09;;;;;;;0.50;0.50;;;;;;;12.03;57.42;98394.47;4964779;28;20035;-81
2023/10/17 13:59:38;;;;;;;0.50;0.50;;;;;;;12.06;56.50;98396.28;4965039;28;20046;-82
2023/10/17 14:02:07;;;;;;;0.50;0.50;;;;;;;11.91;56.98;98396.91;4965019;28;20051;-81
2023/10/17 14:04:36;;;;;;;0.40;0.40;;;;;;;11.40;57.13;98395.00;4963962;28;20050;-83
2023/10/17 14:07:03;;;;;;;0.50;0.50;;;;;;;11.80;57.69;98399.34;4966162;28;20077;-83